createdAt,value
2018-11-21T00:01:23.047Z,-2.10
2018-11-21T00:03:52.237Z,-2.00
2018-11-21T00:06:21.372Z,-2.00
2018-11-21T00:08:50.451Z,-2.30
2018-11-21T00:11:19.568Z,-2.50
2018-11-21T00:13:48.727Z,-2.60
2018-11-21T00:16:17.845Z,-2.50
2018-11-21T00:18:46.965Z,-2.60
2018-11-21T00:21:16.096Z,-2.50
2018-11-21T00:23:45.283Z,-2.40
2018-11-21T00:26:14.458Z,-2.30
2018-11-21T00:28:43.467Z,-2.40
2018-11-21T00:31:12.561Z,-2.40
2018-11-21T00:33:41.668Z,-2.40
2018-11-21T00:36:10.771Z,-2.40
2018-11-21T00:38:39.875Z,-2.40
2018-11-21T00:41:08.985Z,-2.40
2018-11-21T00:43:38.168Z,-2.50
2018-11-21T00:46:07.302Z,-2.40
2018-11-21T00:48:36.414Z,-2.50
2018-11-21T00:51:05.536Z,-2.40
2018-11-21T00:53:34.868Z,-2.40
2018-11-21T00:56:03.948Z,-2.30
2018-11-21T00:58:33.102Z,-2.40
2018-11-21T01:01:02.213Z,-2.70
2018-11-21T01:03:31.316Z,-2.60
2018-11-21T01:06:00.390Z,-2.60
2018-11-21T01:08:29.490Z,-2.80
2018-11-21T01:10:58.545Z,-2.70
2018-11-21T01:13:27.667Z,-2.60
2018-11-21T01:15:56.748Z,-2.60
2018-11-21T01:18:26.001Z,-2.40
2018-11-21T01:20:55.134Z,-2.30
2018-11-21T01:23:24.416Z,-2.20
2018-11-21T01:25:53.486Z,-2.30
2018-11-21T01:28:22.620Z,-2.20
2018-11-21T01:30:51.720Z,-2.20
2018-11-21T01:33:20.905Z,-2.20
2018-11-21T01:35:50.005Z,-2.60
2018-11-21T01:38:19.081Z,-3.00
2018-11-21T01:40:48.179Z,-2.80
2018-11-21T01:43:17.476Z,-2.60
2018-11-21T01:45:46.580Z,-2.90
2018-11-21T01:48:15.694Z,-2.60
2018-11-21T01:50:44.828Z,-2.60
2018-11-21T01:53:13.973Z,-2.30
2018-11-21T01:55:43.075Z,-2.50
2018-11-21T01:58:12.195Z,-2.40
2018-11-21T02:00:41.346Z,-2.40
2018-11-21T02:03:10.523Z,-2.40
2018-11-21T02:05:39.651Z,-2.40
2018-11-21T02:08:08.740Z,-2.30
2018-11-21T02:10:37.885Z,-2.60
2018-11-21T02:13:07.060Z,-2.70
2018-11-21T02:15:36.166Z,-2.70
2018-11-21T02:18:05.505Z,-2.60
2018-11-21T02:20:34.611Z,-2.70
2018-11-21T02:23:03.800Z,-2.90
2018-11-21T02:25:32.907Z,-2.70
2018-11-21T02:28:02.002Z,-2.60
2018-11-21T02:30:31.149Z,-2.70
2018-11-21T02:33:00.256Z,-3.10
2018-11-21T02:35:29.413Z,-3.20
2018-11-21T02:37:58.546Z,-2.80
2018-11-21T02:40:27.722Z,-2.50
2018-11-21T02:42:56.841Z,-2.60
2018-11-21T02:45:26.008Z,-3.00
2018-11-21T02:47:55.119Z,-3.00
2018-11-21T02:50:24.274Z,-2.80
2018-11-21T02:52:53.552Z,-2.70
2018-11-21T02:55:22.673Z,-2.60
2018-11-21T02:57:51.813Z,-2.60
2018-11-21T03:00:22.946Z,-2.80
2018-11-21T03:02:52.072Z,-3.00
2018-11-21T03:05:21.262Z,-3.10
2018-11-21T03:07:51.805Z,-3.50
2018-11-21T03:10:21.926Z,-3.40
2018-11-21T03:12:51.217Z,-3.20
2018-11-21T03:15:20.547Z,-3.10
2018-11-21T03:17:49.643Z,-2.90
2018-11-21T03:20:19.038Z,-2.90
2018-11-21T03:22:48.336Z,-2.80
2018-11-21T03:25:17.470Z,-2.80
2018-11-21T03:27:46.612Z,-2.70
2018-11-21T03:30:15.735Z,-2.70
2018-11-21T03:32:45.074Z,-2.60
2018-11-21T03:35:14.235Z,-2.90
2018-11-21T03:37:43.367Z,-3.10
2018-11-21T03:40:12.914Z,-3.10
2018-11-21T03:42:42.193Z,-3.10
2018-11-21T03:45:12.124Z,-2.90
2018-11-21T03:47:41.317Z,-2.80
2018-11-21T03:50:11.672Z,-2.80
2018-11-21T03:52:40.785Z,-2.80
2018-11-21T03:55:10.556Z,-3.00
2018-11-21T03:57:39.699Z,-2.70
2018-11-21T04:00:13.132Z,-2.80
2018-11-21T04:02:42.568Z,-2.90
2018-11-21T04:05:11.856Z,-2.80
2018-11-21T04:07:40.981Z,-2.70
2018-11-21T04:10:12.481Z,-2.70
2018-11-21T04:12:41.664Z,-2.70
2018-11-21T04:15:12.728Z,-2.50
2018-11-21T04:17:41.840Z,-2.60
2018-11-21T04:20:11.132Z,-2.50
2018-11-21T04:22:40.372Z,-2.90
2018-11-21T04:25:10.877Z,-3.00
2018-11-21T04:27:40.185Z,-3.00
2018-11-21T04:30:11.803Z,-2.80
2018-11-21T04:32:41.275Z,-2.80
2018-11-21T04:35:10.420Z,-3.00
2018-11-21T04:37:39.559Z,-2.90
2018-11-21T04:40:08.706Z,-2.70
2018-11-21T04:42:38.244Z,-2.80
2018-11-21T04:45:08.465Z,-2.90
2018-11-21T04:47:37.543Z,-2.80
2018-11-21T04:50:07.429Z,-2.90
2018-11-21T04:52:36.767Z,-3.00
2018-11-21T04:55:07.134Z,-3.20
2018-11-21T04:57:36.412Z,-2.70
2018-11-21T05:00:07.847Z,-2.80
2018-11-21T05:02:37.132Z,-3.40
2018-11-21T05:05:08.179Z,-3.40
2018-11-21T05:07:37.310Z,-3.20
2018-11-21T05:10:07.752Z,-3.20
2018-11-21T05:12:37.361Z,-3.00
2018-11-21T05:15:06.931Z,-2.80
2018-11-21T05:17:36.221Z,-3.00
2018-11-21T05:20:05.366Z,-2.90
2018-11-21T05:22:34.623Z,-2.70
2018-11-21T05:25:04.023Z,-2.60
2018-11-21T05:27:33.125Z,-2.60
2018-11-21T05:30:02.268Z,-2.80
2018-11-21T05:32:31.395Z,-2.60
2018-11-21T05:35:00.544Z,-2.80
2018-11-21T05:37:29.617Z,-2.60
2018-11-21T05:39:59.663Z,-2.50
2018-11-21T05:42:28.759Z,-2.60
2018-11-21T05:44:58.052Z,-2.50
2018-11-21T05:47:27.252Z,-2.50
2018-11-21T05:49:56.391Z,-2.40
2018-11-21T05:52:25.537Z,-2.10
2018-11-21T05:54:54.639Z,-2.10
2018-11-21T05:57:23.728Z,-2.00
2018-11-21T05:59:52.842Z,-2.00
2018-11-21T06:02:22.008Z,-1.90
2018-11-21T06:04:51.135Z,-1.90
2018-11-21T06:07:20.223Z,-1.80
2018-11-21T06:09:49.386Z,-2.00
2018-11-21T06:12:18.584Z,-2.00
2018-11-21T06:14:47.688Z,-2.10
2018-11-21T06:17:16.788Z,-2.20
2018-11-21T06:19:45.896Z,-2.10
2018-11-21T06:22:14.958Z,-2.00
2018-11-21T06:24:44.074Z,-2.00
2018-11-21T06:27:13.163Z,-1.90
2018-11-21T06:29:42.288Z,-2.00
2018-11-21T06:32:11.447Z,-1.90
2018-11-21T06:34:40.650Z,-1.90
2018-11-21T06:37:09.686Z,-1.90
2018-11-21T06:39:38.859Z,-1.70
2018-11-21T06:42:07.892Z,-1.70
2018-11-21T06:44:36.977Z,-1.60
2018-11-21T06:47:06.110Z,-1.90
2018-11-21T06:49:35.211Z,-1.80
2018-11-21T06:52:04.474Z,-1.70
2018-11-21T06:54:33.566Z,-1.70
2018-11-21T06:57:02.683Z,-1.60
2018-11-21T06:59:31.770Z,-1.60
2018-11-21T07:02:00.942Z,-1.60
2018-11-21T07:04:30.026Z,-1.80
2018-11-21T07:06:59.163Z,-1.70
2018-11-21T07:09:28.280Z,-1.60
2018-11-21T07:11:57.446Z,-1.50
2018-11-21T07:14:26.524Z,-1.50
2018-11-21T07:16:55.656Z,-1.60
2018-11-21T07:19:24.739Z,-1.60
2018-11-21T07:21:53.890Z,-1.60
2018-11-21T07:24:26.327Z,-1.40
2018-11-21T07:26:52.110Z,-1.30
2018-11-21T07:29:21.193Z,-1.20
2018-11-21T07:31:50.395Z,-1.10
2018-11-21T07:34:19.503Z,-1.30
2018-11-21T07:36:50.287Z,-1.20
2018-11-21T07:39:19.396Z,-1.10
2018-11-21T07:41:48.526Z,-1.20
2018-11-21T07:44:17.612Z,-1.00
2018-11-21T07:46:46.751Z,-0.90
2018-11-21T07:49:15.862Z,-0.80
2018-11-21T07:51:44.990Z,-0.70
2018-11-21T07:54:14.098Z,-0.60
2018-11-21T07:57:28.042Z,-0.60
2018-11-21T08:00:54.641Z,-0.60
2018-11-21T08:03:24.793Z,-0.80
2018-11-21T08:05:58.894Z,-0.60
2018-11-21T08:09:02.229Z,-0.40
2018-11-21T08:11:53.206Z,-0.50
2018-11-21T08:14:59.846Z,-0.30
2018-11-21T08:18:03.068Z,-0.20
2018-11-21T08:20:45.461Z,-0.10
2018-11-21T08:23:26.562Z,-0.10
2018-11-21T08:26:09.657Z,0.00
2018-11-21T08:28:38.748Z,-0.10
2018-11-21T08:31:07.805Z,0.00
2018-11-21T08:33:36.917Z,-0.20
2018-11-21T08:36:06.607Z,-0.20
2018-11-21T08:38:35.731Z,-0.10
2018-11-21T08:41:05.202Z,0.00
2018-11-21T08:43:34.286Z,0.30
2018-11-21T08:46:03.402Z,0.30
2018-11-21T08:48:32.500Z,0.40
2018-11-21T08:51:01.697Z,0.50
2018-11-21T08:53:30.787Z,0.50
2018-11-21T08:55:59.873Z,0.50
2018-11-21T08:58:28.982Z,0.60
2018-11-21T09:00:58.220Z,0.70
2018-11-21T09:03:27.335Z,0.70
2018-11-21T09:05:56.408Z,0.80
2018-11-21T09:08:25.837Z,0.90
2018-11-21T09:10:55.034Z,0.90
2018-11-21T09:13:24.142Z,1.00
2018-11-21T09:15:53.475Z,1.10
2018-11-21T09:18:22.299Z,1.10
2018-11-21T09:20:51.389Z,1.10
2018-11-21T09:23:20.493Z,1.00
2018-11-21T09:25:49.799Z,0.90
2018-11-21T09:28:18.880Z,1.10
2018-11-21T09:30:47.978Z,1.10
2018-11-21T09:33:17.045Z,1.30
2018-11-21T09:35:46.371Z,1.50
2018-11-21T09:38:15.455Z,1.40
2018-11-21T09:40:44.618Z,1.60
2018-11-21T09:43:13.693Z,1.70
2018-11-21T09:45:42.785Z,1.60
2018-11-21T09:48:11.856Z,1.60
2018-11-21T09:50:40.999Z,1.60
2018-11-21T09:53:10.058Z,1.70
2018-11-21T09:55:40.477Z,1.70
2018-11-21T09:58:08.223Z,1.80
2018-11-21T10:01:33.682Z,1.80
2018-11-21T10:04:02.764Z,1.60
2018-11-21T10:06:34.579Z,1.80
2018-11-21T10:09:08.522Z,1.90
2018-11-21T10:11:37.850Z,1.70
2018-11-21T10:14:07.358Z,1.70
2018-11-21T10:16:36.432Z,1.50
2018-11-21T10:19:06.131Z,1.70
2018-11-21T10:21:36.072Z,1.90
2018-11-21T10:24:05.179Z,1.80
2018-11-21T10:26:34.284Z,1.80
2018-11-21T10:29:03.343Z,1.60
2018-11-21T10:31:32.421Z,1.60
2018-11-21T10:34:01.509Z,1.80
2018-11-21T10:36:30.595Z,1.70
2018-11-21T10:38:59.645Z,1.60
2018-11-21T10:41:28.737Z,1.60
2018-11-21T10:43:57.813Z,1.60
2018-11-21T10:46:26.902Z,1.70
2018-11-21T10:48:55.976Z,1.90
2018-11-21T10:51:25.127Z,1.80
2018-11-21T10:53:54.216Z,1.70
2018-11-21T10:56:23.326Z,1.70
2018-11-21T10:58:52.402Z,1.80
2018-11-21T11:01:27.461Z,2.10
2018-11-21T11:04:18.393Z,2.20
2018-11-21T11:07:05.314Z,2.00
2018-11-21T11:09:55.945Z,2.00
2018-11-21T11:12:42.918Z,1.90
2018-11-21T11:15:31.126Z,2.00
2018-11-21T11:18:28.091Z,1.90
2018-11-21T11:21:15.319Z,2.00
2018-11-21T11:24:03.536Z,2.10
2018-11-21T11:26:50.843Z,2.20
2018-11-21T11:29:45.351Z,2.00
2018-11-21T11:32:28.367Z,2.00
2018-11-21T11:35:19.594Z,2.20
2018-11-21T11:37:59.326Z,2.20
2018-11-21T11:40:46.412Z,2.30
2018-11-21T11:43:33.526Z,2.30
2018-11-21T11:46:17.398Z,2.20
2018-11-21T11:49:11.811Z,2.20
2018-11-21T11:52:15.621Z,2.10
2018-11-21T11:55:02.448Z,1.90
2018-11-21T11:57:54.557Z,2.10
2018-11-21T12:00:42.830Z,2.20
2018-11-21T12:03:29.649Z,2.20
2018-11-21T12:06:17.913Z,2.10
2018-11-21T12:09:00.987Z,2.10
2018-11-21T12:11:49.307Z,2.00
2018-11-21T12:14:27.442Z,2.10
2018-11-21T12:17:12.592Z,2.10
2018-11-21T12:20:09.834Z,2.20
2018-11-21T12:23:16.265Z,2.10
2018-11-21T12:26:10.423Z,2.20
2018-11-21T12:29:07.858Z,2.30
2018-11-21T12:32:01.134Z,2.30
2018-11-21T12:34:48.372Z,2.50
2018-11-21T12:37:51.911Z,2.30
2018-11-21T12:40:39.099Z,2.20
2018-11-21T12:43:25.965Z,2.30
2018-11-21T12:46:20.496Z,2.30
2018-11-21T12:49:08.741Z,2.20
2018-11-21T12:52:09.726Z,2.30
2018-11-21T12:55:05.268Z,2.40
2018-11-21T12:58:12.019Z,2.30
2018-11-21T13:01:00.320Z,2.20
2018-11-21T13:03:47.345Z,2.10
2018-11-21T13:06:50.745Z,2.10
2018-11-21T13:09:41.557Z,2.20
2018-11-21T13:12:48.417Z,2.00
2018-11-21T13:15:35.415Z,2.10
2018-11-21T13:18:22.551Z,2.20
2018-11-21T13:21:12.738Z,2.30
2018-11-21T13:24:07.092Z,2.40
2018-11-21T13:26:53.997Z,2.10
2018-11-21T13:29:38.899Z,1.90
2018-11-21T13:32:19.865Z,1.90
2018-11-21T13:35:06.534Z,2.00
2018-11-21T13:38:13.112Z,2.00
2018-11-21T13:41:03.771Z,2.10
2018-11-21T13:43:42.775Z,2.00
2018-11-21T13:46:29.633Z,2.20
2018-11-21T13:49:32.929Z,2.20
2018-11-21T13:52:18.986Z,2.10
2018-11-21T13:54:48.502Z,2.10
2018-11-21T13:57:19.130Z,2.30
2018-11-21T13:59:48.231Z,2.30
2018-11-21T14:02:17.470Z,2.30
2018-11-21T14:04:46.583Z,2.10
2018-11-21T14:07:15.753Z,2.10
2018-11-21T14:09:44.857Z,2.20
2018-11-21T14:12:14.165Z,2.30
2018-11-21T14:14:43.245Z,2.30
2018-11-21T14:17:12.372Z,2.20
2018-11-21T14:19:41.487Z,2.10
2018-11-21T14:22:10.620Z,2.10
2018-11-21T14:24:39.761Z,1.90
2018-11-21T14:27:08.868Z,1.80
2018-11-21T14:29:37.978Z,1.90
2018-11-21T14:32:07.085Z,1.90
2018-11-21T14:34:36.184Z,1.90
2018-11-21T14:37:05.293Z,1.80
2018-11-21T14:39:34.414Z,1.80
2018-11-21T14:42:08.203Z,1.80
2018-11-21T14:44:32.847Z,1.90
2018-11-21T14:47:02.580Z,2.00
2018-11-21T14:49:31.665Z,2.10
2018-11-21T14:52:00.923Z,2.00
2018-11-21T14:54:30.010Z,1.90
2018-11-21T14:56:59.152Z,1.90
2018-11-21T14:59:28.263Z,1.90
2018-11-21T15:01:57.390Z,1.80
2018-11-21T15:04:26.477Z,1.90
2018-11-21T15:06:55.596Z,2.00
2018-11-21T15:09:24.682Z,2.00
2018-11-21T15:11:53.823Z,2.00
2018-11-21T15:14:22.943Z,1.90
2018-11-21T15:16:52.067Z,1.90
2018-11-21T15:19:21.154Z,2.00
2018-11-21T15:21:50.274Z,2.00
2018-11-21T15:24:20.954Z,2.10
2018-11-21T15:26:50.050Z,2.00
2018-11-21T15:29:19.325Z,2.00
2018-11-21T15:31:48.449Z,2.10
2018-11-21T15:34:17.556Z,2.00
2018-11-21T15:36:46.654Z,2.10
2018-11-21T15:39:15.797Z,1.90
2018-11-21T15:41:44.904Z,2.00
2018-11-21T15:44:14.040Z,2.00
2018-11-21T15:46:45.875Z,1.90
2018-11-21T15:49:12.284Z,1.90
2018-11-21T15:51:41.401Z,1.90
2018-11-21T15:54:10.539Z,2.00
2018-11-21T15:56:39.645Z,1.90
2018-11-21T15:59:08.741Z,1.90
2018-11-21T16:01:38.021Z,1.90
2018-11-21T16:04:07.312Z,2.00
2018-11-21T16:06:36.387Z,2.00
2018-11-21T16:09:09.006Z,2.00
2018-11-21T16:11:38.275Z,2.00
2018-11-21T16:14:07.416Z,1.90
2018-11-21T16:16:36.514Z,1.80
2018-11-21T16:19:05.765Z,1.70
2018-11-21T16:21:34.851Z,1.70
2018-11-21T16:24:03.938Z,1.60
2018-11-21T16:26:33.048Z,1.60
2018-11-21T16:29:02.249Z,1.70
2018-11-21T16:31:31.261Z,1.70
2018-11-21T16:34:00.518Z,1.80
2018-11-21T16:36:29.651Z,1.80
2018-11-21T16:38:58.708Z,1.90
2018-11-21T16:41:27.928Z,1.70
2018-11-21T16:43:57.037Z,1.80
2018-11-21T16:46:26.117Z,1.80
2018-11-21T16:48:55.231Z,1.70
2018-11-21T16:51:24.412Z,1.70
2018-11-21T16:53:53.525Z,1.80
2018-11-21T16:56:22.585Z,1.60
2018-11-21T16:58:51.699Z,1.60
2018-11-21T17:01:20.773Z,1.70
2018-11-21T17:03:50.034Z,1.80
2018-11-21T17:06:19.106Z,1.60
2018-11-21T17:08:48.168Z,1.70
2018-11-21T17:11:17.261Z,1.70
2018-11-21T17:13:46.400Z,1.80
2018-11-21T17:16:15.505Z,1.70
2018-11-21T17:18:44.626Z,1.70
2018-11-21T17:21:13.880Z,1.70
2018-11-21T17:23:42.971Z,1.70
2018-11-21T17:26:12.072Z,1.70
2018-11-21T17:28:41.166Z,1.70
2018-11-21T17:31:10.495Z,1.90
2018-11-21T17:33:39.662Z,1.90
2018-11-21T17:36:08.765Z,1.80
2018-11-21T17:38:37.846Z,1.70
2018-11-21T17:41:06.975Z,1.70
2018-11-21T17:43:36.054Z,1.70
2018-11-21T17:46:05.686Z,1.70
2018-11-21T17:48:34.757Z,1.80
2018-11-21T17:51:03.853Z,1.60
2018-11-21T17:53:32.926Z,1.80
2018-11-21T17:56:02.027Z,1.80
2018-11-21T17:58:31.103Z,1.80
2018-11-21T18:01:00.433Z,1.70
2018-11-21T18:03:29.524Z,1.70
2018-11-21T18:05:58.669Z,1.70
2018-11-21T18:08:27.770Z,1.90
2018-11-21T18:10:56.978Z,2.20
2018-11-21T18:13:26.073Z,2.10
2018-11-21T18:15:55.193Z,1.90
2018-11-21T18:18:24.335Z,1.90
2018-11-21T18:20:53.455Z,1.90
2018-11-21T18:23:22.532Z,1.90
2018-11-21T18:25:51.704Z,1.90
2018-11-21T18:28:20.801Z,1.80
2018-11-21T18:30:50.171Z,1.80
2018-11-21T18:33:19.327Z,1.80
2018-11-21T18:35:48.437Z,1.90
2018-11-21T18:38:17.635Z,1.90
2018-11-21T18:40:48.532Z,1.90
2018-11-21T18:43:17.664Z,1.80
2018-11-21T18:45:47.507Z,1.70
2018-11-21T18:48:16.673Z,1.70
2018-11-21T18:50:45.883Z,1.80
2018-11-21T18:53:15.152Z,1.70
2018-11-21T18:56:00.439Z,1.70
2018-11-21T18:58:48.092Z,1.70
2018-11-21T19:01:17.217Z,1.80
2018-11-21T19:03:46.359Z,1.90
2018-11-21T19:06:15.460Z,1.80
2018-11-21T19:08:44.590Z,1.70
2018-11-21T19:11:13.694Z,1.70
2018-11-21T19:13:42.805Z,1.90
2018-11-21T19:16:11.898Z,1.90
2018-11-21T19:18:41.970Z,1.90
2018-11-21T19:21:11.073Z,1.90
2018-11-21T19:23:40.196Z,1.90
2018-11-21T19:26:09.268Z,1.90
2018-11-21T19:28:38.381Z,1.90
2018-11-21T19:31:08.774Z,1.90
2018-11-21T19:33:37.882Z,1.90
2018-11-21T19:36:06.959Z,1.90
2018-11-21T19:38:36.076Z,1.90
2018-11-21T19:41:05.564Z,1.90
2018-11-21T19:43:34.594Z,1.90
2018-11-21T19:46:03.899Z,1.80
2018-11-21T19:48:33.111Z,1.80
2018-11-21T19:51:02.330Z,1.80
2018-11-21T19:53:31.445Z,1.70
2018-11-21T19:56:01.491Z,1.80
2018-11-21T19:58:29.650Z,1.90
2018-11-21T20:00:58.726Z,1.90
2018-11-21T20:03:27.952Z,1.90
2018-11-21T20:05:57.047Z,1.80
2018-11-21T20:08:26.170Z,1.80
2018-11-21T20:10:55.377Z,1.70
2018-11-21T20:13:24.474Z,1.80
2018-11-21T20:15:53.544Z,1.80
2018-11-21T20:18:22.870Z,1.80
2018-11-21T20:20:52.111Z,1.90
2018-11-21T20:23:21.268Z,1.90
2018-11-21T20:25:50.396Z,1.90
2018-11-21T20:28:19.480Z,1.90
2018-11-21T20:30:48.750Z,2.00
2018-11-21T20:33:17.883Z,2.00
2018-11-21T20:35:46.955Z,2.00
2018-11-21T20:38:16.057Z,1.90
2018-11-21T20:40:45.162Z,2.00
2018-11-21T20:43:14.238Z,2.00
2018-11-21T20:45:43.347Z,1.90
2018-11-21T20:48:12.768Z,1.80
2018-11-21T20:51:01.260Z,1.80
2018-11-21T20:53:30.366Z,1.90
2018-11-21T20:55:59.477Z,1.80
2018-11-21T20:58:28.543Z,1.80
2018-11-21T21:00:57.635Z,1.90
2018-11-21T21:03:26.784Z,1.90
2018-11-21T21:05:55.908Z,1.90
2018-11-21T21:08:25.044Z,1.80
